sensor_id;sensor_type;location;lat;lon;timestamp;pressure;altitude;pressure_sealevel;temperature;humidity
11349;BME280;5729;43.570;27.826;2023-03-03T00:02:21;99483.00;;;7.02;100.00
11349;BME280;5729;43.570;27.826;2023-03-03T00:04:47;99484.41;;;7.08;100.00
11349;BME280;5729;43.570;27.826;2023-03-03T00:07:12;99493.25;;;7.09;100.00
11349;BME280;5729;43.570;27.826;2023-03-03T00:09:45;99487.56;;;7.10;100.00
11349;BME280;5729;43.570;27.826;2023-03-03T00:12:22;99479.38;;;7.07;100.00
11349;BME280;5729;43.570;27.826;2023-03-03T00:14:48;99485.53;;;7.07;100.00
11349;BME280;5729;43.570;27.826;2023-03-03T00:17:30;99481.75;;;7.08;100.00
11349;BME280;5729;43.570;27.826;2023-03-03T00:19:57;99470.34;;;7.11;100.00
11349;BME280;5729;43.570;27.826;2023-03-03T00:22:32;99469.75;;;7.06;100.00
11349;BME280;5729;43.570;27.826;2023-03-03T00:27:43;99464.25;;;7.02;100.00
11349;BME280;5729;43.570;27.826;2023-03-03T00:30:27;99462.66;;;7.10;100.00
11349;BME280;5729;43.570;27.826;2023-03-03T00:32:53;99468.81;;;7.10;100.00
11349;BME280;5729;43.570;27.826;2023-03-03T00:35:28;99460.78;;;7.02;100.00
11349;BME280;5729;43.570;27.826;2023-03-03T00:37:57;99453.59;;;6.93;100.00
11349;BME280;5729;43.570;27.826;2023-03-03T00:40:45;99454.78;;;7.05;100.00
11349;BME280;5729;43.570;27.826;2023-03-03T00:43:55;99451.53;;;6.99;100.00
11349;BME280;5729;43.570;27.826;2023-03-03T00:46:01;99436.09;;;6.96;100.00
11349;BME280;5729;43.570;27.826;2023-03-03T00:48:40;99445.22;;;6.95;100.00
11349;BME280;5729;43.570;27.826;2023-03-03T00:53:47;99431.09;;;6.86;100.00
11349;BME280;5729;43.570;27.826;2023-03-03T00:56:12;99427.44;;;6.90;100.00
11349;BME280;5729;43.570;27.826;2023-03-03T00:58:38;99419.44;;;6.82;100.00
11349;BME280;5729;43.570;27.826;2023-03-03T01:01:04;99418.50;;;6.40;100.00
11349;BME280;5729;43.570;27.826;2023-03-03T01:03:29;99427.72;;;6.60;100.00
11349;BME280;5729;43.570;27.826;2023-03-03T01:05:55;99427.00;;;6.80;100.00
11349;BME280;5729;43.570;27.826;2023-03-03T01:08:20;99423.84;;;6.78;100.00
11349;BME280;5729;43.570;27.826;2023-03-03T01:11:11;99428.03;;;6.58;100.00
11349;BME280;5729;43.570;27.826;2023-03-03T01:13:39;99419.53;;;6.65;100.00
11349;BME280;5729;43.570;27.826;2023-03-03T01:16:06;99421.34;;;6.35;100.00
11349;BME280;5729;43.570;27.826;2023-03-03T01:18:32;99420.63;;;6.64;100.00
11349;BME280;5729;43.570;27.826;2023-03-03T01:20:58;99423.31;;;6.55;100.00
11349;BME280;5729;43.570;27.826;2023-03-03T01:23:23;99417.38;;;6.49;100.00
11349;BME280;5729;43.570;27.826;2023-03-03T01:25:49;99416.84;;;6.65;100.00
11349;BME280;5729;43.570;27.826;2023-03-03T01:28:14;99415.91;;;6.61;100.00
11349;BME280;5729;43.570;27.826;2023-03-03T01:30:40;99415.75;;;6.57;100.00
11349;BME280;5729;43.570;27.826;2023-03-03T01:33:05;99405.78;;;6.66;100.00
11349;BME280;5729;43.570;27.826;2023-03-03T01:35:31;99408.81;;;6.65;100.00
11349;BME280;5729;43.570;27.826;2023-03-03T01:37:57;99377.53;;;6.48;100.00
11349;BME280;5729;43.570;27.826;2023-03-03T01:40:27;99396.69;;;6.59;100.00
11349;BME280;5729;43.570;27.826;2023-03-03T01:42:52;99386.72;;;6.68;100.00
11349;BME280;5729;43.570;27.826;2023-03-03T01:45:24;99398.53;;;6.75;100.00
11349;BME280;5729;43.570;27.826;2023-03-03T01:48:24;99390.81;;;6.74;100.00
11349;BME280;5729;43.570;27.826;2023-03-03T01:53:50;99385.03;;;6.63;100.00
11349;BME280;5729;43.570;27.826;2023-03-03T01:56:17;99391.81;;;6.61;100.00
11349;BME280;5729;43.570;27.826;2023-03-03T01:58:50;99380.94;;;6.57;100.00
11349;BME280;5729;43.570;27.826;2023-03-03T02:01:22;99381.13;;;6.52;100.00
11349;BME280;5729;43.570;27.826;2023-03-03T02:03:49;99374.53;;;6.49;100.00
11349;BME280;5729;43.570;27.826;2023-03-03T02:06:17;99366.66;;;6.44;100.00
11349;BME280;5729;43.570;27.826;2023-03-03T02:09:05;99366.81;;;6.48;100.00
11349;BME280;5729;43.570;27.826;2023-03-03T02:11:33;99368.53;;;6.52;100.00
11349;BME280;5729;43.570;27.826;2023-03-03T02:14:00;99352.94;;;6.54;100.00
11349;BME280;5729;43.570;27.826;2023-03-03T02:16:26;99361.09;;;6.58;100.00
11349;BME280;5729;43.570;27.826;2023-03-03T02:18:51;99361.25;;;6.62;100.00
11349;BME280;5729;43.570;27.826;2023-03-03T02:21:22;99365.97;;;6.65;100.00
11349;BME280;5729;43.570;27.826;2023-03-03T02:24:01;99362.88;;;6.54;100.00
11349;BME280;5729;43.570;27.826;2023-03-03T02:26:30;99364.88;;;6.57;100.00
11349;BME280;5729;43.570;27.826;2023-03-03T02:28:57;99361.59;;;6.51;100.00
11349;BME280;5729;43.570;27.826;2023-03-03T02:31:25;99365.19;;;6.55;100.00
11349;BME280;5729;43.570;27.826;2023-03-03T02:33:52;99359.19;;;6.59;100.00
11349;BME280;5729;43.570;27.826;2023-03-03T02:36:21;99369.91;;;6.59;100.00
11349;BME280;5729;43.570;27.826;2023-03-03T02:44:29;99351.53;;;6.48;100.00
11349;BME280;5729;43.570;27.826;2023-03-03T02:46:55;99355.63;;;6.46;100.00
11349;BME280;5729;43.570;27.826;2023-03-03T02:49:23;99361.19;;;6.41;100.00
11349;BME280;5729;43.570;27.826;2023-03-03T02:51:49;99361.19;;;6.32;100.00
11349;BME280;5729;43.570;27.826;2023-03-03T02:54:17;99360.59;;;6.27;100.00
11349;BME280;5729;43.570;27.826;2023-03-03T02:56:43;99360.91;;;6.25;100.00
11349;BME280;5729;43.570;27.826;2023-03-03T02:59:08;99364.22;;;6.31;100.00
11349;BME280;5729;43.570;27.826;2023-03-03T03:01:34;99364.97;;;6.40;100.00
11349;BME280;5729;43.570;27.826;2023-03-03T03:04:06;99363.53;;;6.42;100.00
11349;BME280;5729;43.570;27.826;2023-03-03T03:06:32;99362.88;;;6.45;100.00
11349;BME280;5729;43.570;27.826;2023-03-03T03:08:58;99353.72;;;6.17;100.00
11349;BME280;5729;43.570;27.826;2023-03-03T03:11:24;99350.16;;;6.34;100.00
11349;BME280;5729;43.570;27.826;2023-03-03T03:13:50;99352.22;;;6.37;100.00
11349;BME280;5729;43.570;27.826;2023-03-03T03:16:16;99350.47;;;6.41;100.00
11349;BME280;5729;43.570;27.826;2023-03-03T03:18:42;99348.38;;;6.46;100.00
11349;BME280;5729;43.570;27.826;2023-03-03T03:21:09;99345.13;;;6.41;100.00
11349;BME280;5729;43.570;27.826;2023-03-03T03:23:35;99341.78;;;6.44;100.00
11349;BME280;5729;43.570;27.826;2023-03-03T03:26:00;99352.16;;;6.45;100.00
11349;BME280;5729;43.570;27.826;2023-03-03T03:28:26;99347.13;;;6.44;100.00
11349;BME280;5729;43.570;27.826;2023-03-03T03:30:51;99353.41;;;6.48;100.00
11349;BME280;5729;43.570;27.826;2023-03-03T03:33:17;99356.88;;;6.48;100.00
11349;BME280;5729;43.570;27.826;2023-03-03T03:35:42;99361.13;;;6.49;100.00
11349;BME280;5729;43.570;27.826;2023-03-03T03:38:12;99362.72;;;6.50;100.00
11349;BME280;5729;43.570;27.826;2023-03-03T03:40:38;99347.75;;;6.49;100.00
11349;BME280;5729;43.570;27.826;2023-03-03T03:43:04;99346.19;;;6.48;100.00
11349;BME280;5729;43.570;27.826;2023-03-03T03:45:29;99345.41;;;6.48;100.00
11349;BME280;5729;43.570;27.826;2023-03-03T03:47:55;99341.47;;;6.45;100.00
11349;BME280;5729;43.570;27.826;2023-03-03T03:50:20;99348.59;;;6.41;100.00
11349;BME280;5729;43.570;27.826;2023-03-03T03:52:46;99349.38;;;6.42;100.00
11349;BME280;5729;43.570;27.826;2023-03-03T03:55:12;99354.38;;;6.43;100.00
11349;BME280;5729;43.570;27.826;2023-03-03T03:57:39;99349.50;;;6.45;100.00
11349;BME280;5729;43.570;27.826;2023-03-03T04:00:05;99349.03;;;6.43;100.00
11349;BME280;5729;43.570;27.826;2023-03-03T04:02:33;99352.38;;;6.40;100.00
11349;BME280;5729;43.570;27.826;2023-03-03T04:04:58;99347.66;;;6.37;100.00
11349;BME280;5729;43.570;27.826;2023-03-03T04:07:24;99344.69;;;6.30;100.00
11349;BME280;5729;43.570;27.826;2023-03-03T04:09:49;99341.59;;;6.19;100.00
11349;BME280;5729;43.570;27.826;2023-03-03T04:12:15;99337.63;;;6.26;100.00
11349;BME280;5729;43.570;27.826;2023-03-03T04:14:40;99337.88;;;6.33;100.00
11349;BME280;5729;43.570;27.826;2023-03-03T04:17:06;99341.66;;;6.40;100.00
11349;BME280;5729;43.570;27.826;2023-03-03T04:19:31;99336.94;;;6.37;100.00
11349;BME280;5729;43.570;27.826;2023-03-03T04:21:56;99332.63;;;6.15;100.00
11349;BME280;5729;43.570;27.826;2023-03-03T04:24:22;99334.66;;;6.10;100.00
11349;BME280;5729;43.570;27.826;2023-03-03T04:26:47;99330.59;;;6.04;100.00
11349;BME280;5729;43.570;27.826;2023-03-03T04:29:13;99333.13;;;6.09;100.00
11349;BME280;5729;43.570;27.826;2023-03-03T04:31:38;99337.19;;;6.15;100.00
11349;BME280;5729;43.570;27.826;2023-03-03T04:34:04;99333.25;;;6.12;100.00
11349;BME280;5729;43.570;27.826;2023-03-03T04:36:29;99334.63;;;6.27;100.00
11349;BME280;5729;43.570;27.826;2023-03-03T04:38:55;99327.72;;;6.17;100.00
11349;BME280;5729;43.570;27.826;2023-03-03T04:41:20;99345.88;;;6.03;100.00
11349;BME280;5729;43.570;27.826;2023-03-03T04:43:46;99338.41;;;6.26;100.00
11349;BME280;5729;43.570;27.826;2023-03-03T04:46:11;99333.19;;;6.30;100.00
11349;BME280;5729;43.570;27.826;2023-03-03T04:48:37;99338.81;;;6.37;100.00
11349;BME280;5729;43.570;27.826;2023-03-03T04:51:03;99322.97;;;6.32;100.00
11349;BME280;5729;43.570;27.826;2023-03-03T04:53:28;99331.06;;;6.44;100.00
11349;BME280;5729;43.570;27.826;2023-03-03T04:55:54;99335.19;;;6.41;100.00
11349;BME280;5729;43.570;27.826;2023-03-03T04:58:20;99336.41;;;6.52;100.00
11349;BME280;5729;43.570;27.826;2023-03-03T05:00:47;99319.88;;;6.50;100.00
11349;BME280;5729;43.570;27.826;2023-03-03T05:03:17;99333.53;;;6.57;100.00
11349;BME280;5729;43.570;27.826;2023-03-03T05:05:45;99329.78;;;6.50;100.00
11349;BME280;5729;43.570;27.826;2023-03-03T05:08:10;99325.81;;;6.56;100.00
11349;BME280;5729;43.570;27.826;2023-03-03T05:10:36;99317.66;;;6.52;100.00
11349;BME280;5729;43.570;27.826;2023-03-03T05:13:02;99335.41;;;6.66;100.00
11349;BME280;5729;43.570;27.826;2023-03-03T05:15:27;99330.16;;;6.69;100.00
11349;BME280;5729;43.570;27.826;2023-03-03T05:17:53;99331.50;;;6.54;100.00
11349;BME280;5729;43.570;27.826;2023-03-03T05:20:22;99331.88;;;6.74;100.00
11349;BME280;5729;43.570;27.826;2023-03-03T05:22:47;99318.41;;;6.82;100.00
11349;BME280;5729;43.570;27.826;2023-03-03T05:25:13;99323.47;;;6.84;100.00
11349;BME280;5729;43.570;27.826;2023-03-03T05:27:38;99328.59;;;6.68;100.00
11349;BME280;5729;43.570;27.826;2023-03-03T05:30:05;99328.63;;;6.60;100.00
11349;BME280;5729;43.570;27.826;2023-03-03T05:32:31;99340.97;;;6.52;100.00
11349;BME280;5729;43.570;27.826;2023-03-03T05:34:57;99332.25;;;6.64;100.00
11349;BME280;5729;43.570;27.826;2023-03-03T05:37:22;99330.72;;;6.54;100.00
11349;BME280;5729;43.570;27.826;2023-03-03T05:39:48;99345.66;;;6.55;100.00
11349;BME280;5729;43.570;27.826;2023-03-03T05:42:14;99338.88;;;6.57;100.00
11349;BME280;5729;43.570;27.826;2023-03-03T05:44:40;99332.88;;;6.61;100.00
11349;BME280;5729;43.570;27.826;2023-03-03T05:47:05;99335.41;;;6.66;100.00
11349;BME280;5729;43.570;27.826;2023-03-03T05:49:31;99333.84;;;6.56;100.00
11349;BME280;5729;43.570;27.826;2023-03-03T05:51:57;99335.88;;;6.59;100.00
11349;BME280;5729;43.570;27.826;2023-03-03T05:54:23;99346.75;;;6.63;100.00
11349;BME280;5729;43.570;27.826;2023-03-03T05:56:48;99344.00;;;6.71;100.00
11349;BME280;5729;43.570;27.826;2023-03-03T05:59:14;99340.16;;;6.81;100.00
11349;BME280;5729;43.570;27.826;2023-03-03T06:01:39;99343.97;;;6.80;100.00
11349;BME280;5729;43.570;27.826;2023-03-03T06:04:05;99347.56;;;6.84;100.00
11349;BME280;5729;43.570;27.826;2023-03-03T06:06:30;99343.31;;;6.83;100.00
11349;BME280;5729;43.570;27.826;2023-03-03T06:08:56;99345.47;;;6.89;100.00
11349;BME280;5729;43.570;27.826;2023-03-03T06:11:21;99345.16;;;6.91;100.00
11349;BME280;5729;43.570;27.826;2023-03-03T06:13:47;99346.34;;;7.02;100.00
11349;BME280;5729;43.570;27.826;2023-03-03T06:16:12;99350.19;;;7.13;100.00
11349;BME280;5729;43.570;27.826;2023-03-03T06:18:38;99344.34;;;7.20;100.00
11349;BME280;5729;43.570;27.826;2023-03-03T06:21:03;99348.06;;;7.27;100.00
11349;BME280;5729;43.570;27.826;2023-03-03T06:23:29;99343.28;;;7.33;100.00
11349;BME280;5729;43.570;27.826;2023-03-03T06:25:54;99350.59;;;7.45;100.00
11349;BME280;5729;43.570;27.826;2023-03-03T06:28:20;99344.69;;;7.51;100.00
11349;BME280;5729;43.570;27.826;2023-03-03T06:30:47;99344.91;;;7.46;100.00
11349;BME280;5729;43.570;27.826;2023-03-03T06:33:12;99350.53;;;7.53;100.00
11349;BME280;5729;43.570;27.826;2023-03-03T06:35:38;99344.38;;;7.53;100.00
11349;BME280;5729;43.570;27.826;2023-03-03T06:38:03;99343.41;;;7.37;100.00
11349;BME280;5729;43.570;27.826;2023-03-03T06:40:29;99349.16;;;7.26;100.00
11349;BME280;5729;43.570;27.826;2023-03-03T06:42:54;99336.78;;;7.34;100.00
11349;BME280;5729;43.570;27.826;2023-03-03T06:45:20;99355.97;;;7.45;100.00
11349;BME280;5729;43.570;27.826;2023-03-03T06:47:45;99342.63;;;7.36;100.00
11349;BME280;5729;43.570;27.826;2023-03-03T06:50:11;99343.81;;;7.26;100.00
11349;BME280;5729;43.570;27.826;2023-03-03T06:52:37;99349.88;;;7.36;100.00
11349;BME280;5729;43.570;27.826;2023-03-03T06:55:11;99353.66;;;7.35;100.00
11349;BME280;5729;43.570;27.826;2023-03-03T06:57:38;99358.06;;;7.39;100.00
11349;BME280;5729;43.570;27.826;2023-03-03T07:03:13;99358.78;;;7.27;100.00
11349;BME280;5729;43.570;27.826;2023-03-03T07:05:39;99345.97;;;7.33;100.00
11349;BME280;5729;43.570;27.826;2023-03-03T07:08:16;99343.69;;;7.44;100.00
11349;BME280;5729;43.570;27.826;2023-03-03T07:10:43;99348.66;;;7.33;100.00
11349;BME280;5729;43.570;27.826;2023-03-03T07:15:43;99340.47;;;7.29;100.00
11349;BME280;5729;43.570;27.826;2023-03-03T07:18:36;99350.03;;;7.18;100.00
11349;BME280;5729;43.570;27.826;2023-03-03T07:21:12;99351.66;;;7.32;100.00
11349;BME280;5729;43.570;27.826;2023-03-03T07:23:39;99327.47;;;7.19;100.00
11349;BME280;5729;43.570;27.826;2023-03-03T07:26:30;99347.78;;;7.41;100.00
11349;BME280;5729;43.570;27.826;2023-03-03T07:31:28;99342.22;;;7.46;100.00
11349;BME280;5729;43.570;27.826;2023-03-03T07:33:56;99347.44;;;7.63;100.00
11349;BME280;5729;43.570;27.826;2023-03-03T07:36:30;99336.09;;;7.79;100.00
11349;BME280;5729;43.570;27.826;2023-03-03T07:38:58;99341.66;;;7.74;100.00
11349;BME280;5729;43.570;27.826;2023-03-03T07:41:26;99341.06;;;7.68;100.00
11349;BME280;5729;43.570;27.826;2023-03-03T07:44:06;99340.78;;;7.82;100.00
11349;BME280;5729;43.570;27.826;2023-03-03T07:46:46;99338.19;;;7.73;100.00
11349;BME280;5729;43.570;27.826;2023-03-03T07:49:36;99333.06;;;7.80;100.00
11349;BME280;5729;43.570;27.826;2023-03-03T07:54:44;99321.81;;;7.99;100.00
11349;BME280;5729;43.570;27.826;2023-03-03T07:59:36;99322.72;;;8.15;100.00
11349;BME280;5729;43.570;27.826;2023-03-03T08:02:05;99317.28;;;8.12;100.00
11349;BME280;5729;43.570;27.826;2023-03-03T08:04:44;99314.94;;;8.22;100.00
11349;BME280;5729;43.570;27.826;2023-03-03T08:07:18;99318.16;;;8.28;100.00
11349;BME280;5729;43.570;27.826;2023-03-03T08:09:50;99314.72;;;8.40;100.00
11349;BME280;5729;43.570;27.826;2023-03-03T08:12:32;99308.91;;;8.50;100.00
11349;BME280;5729;43.570;27.826;2023-03-03T08:15:32;99309.47;;;8.43;100.00
11349;BME280;5729;43.570;27.826;2023-03-03T08:18:01;99306.47;;;8.32;100.00
11349;BME280;5729;43.570;27.826;2023-03-03T08:20:46;99306.97;;;8.26;100.00
11349;BME280;5729;43.570;27.826;2023-03-03T08:23:13;99308.34;;;8.32;100.00
11349;BME280;5729;43.570;27.826;2023-03-03T08:25:40;99313.03;;;8.47;100.00
11349;BME280;5729;43.570;27.826;2023-03-03T08:28:07;99302.53;;;8.54;100.00
11349;BME280;5729;43.570;27.826;2023-03-03T08:30:32;99300.84;;;8.62;100.00
11349;BME280;5729;43.570;27.826;2023-03-03T08:32:58;99304.88;;;8.68;100.00
11349;BME280;5729;43.570;27.826;2023-03-03T08:35:23;99302.41;;;8.63;100.00
11349;BME280;5729;43.570;27.826;2023-03-03T08:37:49;99309.56;;;8.71;100.00
11349;BME280;5729;43.570;27.826;2023-03-03T08:40:15;99296.81;;;8.80;100.00
11349;BME280;5729;43.570;27.826;2023-03-03T08:42:40;99298.56;;;8.88;100.00
11349;BME280;5729;43.570;27.826;2023-03-03T08:45:06;99303.31;;;8.79;100.00
11349;BME280;5729;43.570;27.826;2023-03-03T08:47:31;99294.78;;;8.77;100.00
11349;BME280;5729;43.570;27.826;2023-03-03T08:49:57;99298.81;;;8.71;100.00
11349;BME280;5729;43.570;27.826;2023-03-03T08:52:23;99295.75;;;8.97;100.00
11349;BME280;5729;43.570;27.826;2023-03-03T08:54:51;99298.03;;;9.23;100.00
11349;BME280;5729;43.570;27.826;2023-03-03T08:57:17;99289.91;;;9.07;100.00
11349;BME280;5729;43.570;27.826;2023-03-03T08:59:43;99292.44;;;9.16;100.00
11349;BME280;5729;43.570;27.826;2023-03-03T09:02:08;99292.28;;;9.36;100.00
11349;BME280;5729;43.570;27.826;2023-03-03T09:04:34;99287.97;;;9.48;100.00
11349;BME280;5729;43.570;27.826;2023-03-03T09:06:59;99298.13;;;9.26;100.00
11349;BME280;5729;43.570;27.826;2023-03-03T09:09:25;99298.13;;;9.54;100.00
11349;BME280;5729;43.570;27.826;2023-03-03T09:11:53;99299.28;;;9.69;100.00
11349;BME280;5729;43.570;27.826;2023-03-03T09:14:27;99286.13;;;9.79;100.00
11349;BME280;5729;43.570;27.826;2023-03-03T09:16:54;99306.09;;;9.51;100.00
11349;BME280;5729;43.570;27.826;2023-03-03T09:19:35;99302.09;;;9.44;100.00
11349;BME280;5729;43.570;27.826;2023-03-03T09:22:17;99298.00;;;9.78;100.00
11349;BME280;5729;43.570;27.826;2023-03-03T09:24:43;99291.38;;;10.19;100.00
11349;BME280;5729;43.570;27.826;2023-03-03T09:27:18;99279.41;;;10.52;100.00
11349;BME280;5729;43.570;27.826;2023-03-03T09:29:44;99273.69;;;11.08;100.00
11349;BME280;5729;43.570;27.826;2023-03-03T09:32:36;99278.00;;;11.70;100.00
11349;BME280;5729;43.570;27.826;2023-03-03T09:35:39;99277.53;;;11.87;100.00
11349;BME280;5729;43.570;27.826;2023-03-03T09:38:30;99269.91;;;12.16;100.00
11349;BME280;5729;43.570;27.826;2023-03-03T09:41:04;99270.81;;;12.23;93.43
11349;BME280;5729;43.570;27.826;2023-03-03T09:49:33;99255.75;;;11.99;88.50
11349;BME280;5729;43.570;27.826;2023-03-03T09:57:43;99250.56;;;11.68;96.25
11349;BME280;5729;43.570;27.826;2023-03-03T10:00:26;99240.75;;;11.37;100.00
11349;BME280;5729;43.570;27.826;2023-03-03T10:05:57;99239.72;;;12.10;95.08
11349;BME280;5729;43.570;27.826;2023-03-03T10:08:35;99225.47;;;12.66;86.78
11349;BME280;5729;43.570;27.826;2023-03-03T10:11:18;99224.75;;;12.69;82.31
11349;BME280;5729;43.570;27.826;2023-03-03T10:14:03;99230.09;;;12.95;77.94
11349;BME280;5729;43.570;27.826;2023-03-03T10:19:37;99221.16;;;12.91;77.45
11349;BME280;5729;43.570;27.826;2023-03-03T10:22:16;99216.63;;;12.69;84.02
11349;BME280;5729;43.570;27.826;2023-03-03T10:27:50;99203.97;;;12.47;77.29
11349;BME280;5729;43.570;27.826;2023-03-03T10:30:39;99206.25;;;12.45;78.06
11349;BME280;5729;43.570;27.826;2023-03-03T10:42:03;99200.59;;;12.27;77.37
11349;BME280;5729;43.570;27.826;2023-03-03T10:53:21;99173.25;;;12.32;69.50
11349;BME280;5729;43.570;27.826;2023-03-03T10:56:26;99173.38;;;12.39;66.33
11349;BME280;5729;43.570;27.826;2023-03-03T10:59:16;99165.56;;;12.08;68.79
11349;BME280;5729;43.570;27.826;2023-03-03T11:01:48;99165.38;;;12.80;67.07
11349;BME280;5729;43.570;27.826;2023-03-03T11:04:53;99153.97;;;13.30;60.91
11349;BME280;5729;43.570;27.826;2023-03-03T11:10:06;99167.22;;;12.42;64.99
11349;BME280;5729;43.570;27.826;2023-03-03T11:37:45;99103.84;;;17.62;47.66
11349;BME280;5729;43.570;27.826;2023-03-03T11:40:23;99098.41;;;17.14;47.02
11349;BME280;5729;43.570;27.826;2023-03-03T11:45:54;99078.75;;;19.37;43.32
11349;BME280;5729;43.570;27.826;2023-03-03T11:56:33;99082.50;;;17.98;43.55
11349;BME280;5729;43.570;27.826;2023-03-03T12:01:55;99084.16;;;18.26;43.95
11349;BME280;5729;43.570;27.826;2023-03-03T12:07:22;99076.69;;;17.96;44.28
11349;BME280;5729;43.570;27.826;2023-03-03T12:12:53;99074.41;;;17.47;46.16
11349;BME280;5729;43.570;27.826;2023-03-03T12:15:35;99061.44;;;17.13;48.05
11349;BME280;5729;43.570;27.826;2023-03-03T12:21:06;99074.78;;;16.93;48.39
11349;BME280;5729;43.570;27.826;2023-03-03T12:24:15;99068.97;;;15.97;50.43
11349;BME280;5729;43.570;27.826;2023-03-03T12:27:17;99063.13;;;16.09;52.06
11349;BME280;5729;43.570;27.826;2023-03-03T12:35:14;99063.19;;;16.82;48.35
11349;BME280;5729;43.570;27.826;2023-03-03T12:37:51;99065.41;;;16.18;48.93
11349;BME280;5729;43.570;27.826;2023-03-03T12:40:24;99060.50;;;15.56;51.44
11349;BME280;5729;43.570;27.826;2023-03-03T12:46:03;99061.91;;;14.50;59.16
11349;BME280;5729;43.570;27.826;2023-03-03T12:48:42;99059.50;;;14.38;60.60
11349;BME280;5729;43.570;27.826;2023-03-03T12:56:53;99055.44;;;13.97;62.30
11349;BME280;5729;43.570;27.826;2023-03-03T13:13:24;99054.00;;;13.52;69.04
11349;BME280;5729;43.570;27.826;2023-03-03T13:16:03;99053.97;;;13.48;65.07
11349;BME280;5729;43.570;27.826;2023-03-03T13:18:36;99053.38;;;13.25;66.42
11349;BME280;5729;43.570;27.826;2023-03-03T13:24:24;99052.34;;;12.99;68.05
11349;BME280;5729;43.570;27.826;2023-03-03T13:26:46;99052.63;;;12.87;67.31
11349;BME280;5729;43.570;27.826;2023-03-03T13:29:19;99018.56;;;12.42;69.64
11349;BME280;5729;43.570;27.826;2023-03-03T13:31:59;99044.41;;;12.73;70.86
11349;BME280;5729;43.570;27.826;2023-03-03T13:37:18;99037.50;;;12.79;70.12
11349;BME280;5729;43.570;27.826;2023-03-03T13:40:12;99035.75;;;12.60;68.02
11349;BME280;5729;43.570;27.826;2023-03-03T13:48:40;99019.59;;;12.30;85.84
11349;BME280;5729;43.570;27.826;2023-03-03T13:54:08;99022.50;;;12.48;84.37
11349;BME280;5729;43.570;27.826;2023-03-03T14:07:35;99020.63;;;11.36;100.00
11349;BME280;5729;43.570;27.826;2023-03-03T14:10:25;99029.13;;;11.38;100.00
11349;BME280;5729;43.570;27.826;2023-03-03T14:13:01;99026.25;;;11.50;100.00
11349;BME280;5729;43.570;27.826;2023-03-03T14:15:55;99026.53;;;11.45;100.00
11349;BME280;5729;43.570;27.826;2023-03-03T14:21:08;99035.78;;;11.44;100.00
11349;BME280;5729;43.570;27.826;2023-03-03T14:28:40;99041.38;;;11.32;100.00
11349;BME280;5729;43.570;27.826;2023-03-03T14:31:16;99033.88;;;11.22;100.00
11349;BME280;5729;43.570;27.826;2023-03-03T14:34:00;99036.66;;;11.25;100.00
11349;BME280;5729;43.570;27.826;2023-03-03T14:36:32;99036.94;;;11.20;100.00
11349;BME280;5729;43.570;27.826;2023-03-03T14:39:01;99033.47;;;11.20;100.00
11349;BME280;5729;43.570;27.826;2023-03-03T14:41:40;99034.44;;;11.08;100.00
11349;BME280;5729;43.570;27.826;2023-03-03T14:47:22;99037.47;;;11.07;100.00
11349;BME280;5729;43.570;27.826;2023-03-03T14:49:49;99043.63;;;11.04;100.00
11349;BME280;5729;43.570;27.826;2023-03-03T14:54:47;99031.69;;;11.05;100.00
11349;BME280;5729;43.570;27.826;2023-03-03T14:57:21;99010.16;;;10.85;100.00
11349;BME280;5729;43.570;27.826;2023-03-03T14:59:57;99040.31;;;10.91;100.00
11349;BME280;5729;43.570;27.826;2023-03-03T15:02:28;99040.84;;;10.77;100.00
11349;BME280;5729;43.570;27.826;2023-03-03T15:05:12;99043.50;;;10.54;100.00
11349;BME280;5729;43.570;27.826;2023-03-03T15:07:38;99041.47;;;10.48;100.00
11349;BME280;5729;43.570;27.826;2023-03-03T15:10:05;99044.63;;;10.53;100.00
11349;BME280;5729;43.570;27.826;2023-03-03T15:17:53;99047.41;;;10.38;100.00
11349;BME280;5729;43.570;27.826;2023-03-03T15:21:37;99049.53;;;10.48;100.00
11349;BME280;5729;43.570;27.826;2023-03-03T15:23:51;99051.28;;;10.40;100.00
11349;BME280;5729;43.570;27.826;2023-03-03T15:34:39;99033.41;;;10.51;100.00
11349;BME280;5729;43.570;27.826;2023-03-03T15:37:41;99050.59;;;10.43;100.00
11349;BME280;5729;43.570;27.826;2023-03-03T15:43:12;99036.25;;;10.59;100.00
11349;BME280;5729;43.570;27.826;2023-03-03T15:46:05;99051.94;;;10.53;100.00
11349;BME280;5729;43.570;27.826;2023-03-03T15:48:58;99044.72;;;10.38;100.00
11349;BME280;5729;43.570;27.826;2023-03-03T16:02:18;99046.31;;;10.04;100.00
11349;BME280;5729;43.570;27.826;2023-03-03T16:05:12;99042.44;;;10.21;100.00
11349;BME280;5729;43.570;27.826;2023-03-03T16:08:01;99049.81;;;10.24;100.00
11349;BME280;5729;43.570;27.826;2023-03-03T16:22:25;99065.06;;;9.81;100.00
11349;BME280;5729;43.570;27.826;2023-03-03T16:27:20;99056.09;;;9.77;100.00
11349;BME280;5729;43.570;27.826;2023-03-03T16:33:23;99076.03;;;9.57;100.00
11349;BME280;5729;43.570;27.826;2023-03-03T16:49:10;99078.13;;;9.48;100.00
11349;BME280;5729;43.570;27.826;2023-03-03T16:51:55;99081.41;;;9.41;100.00
11349;BME280;5729;43.570;27.826;2023-03-03T16:54:33;99096.25;;;9.35;100.00
11349;BME280;5729;43.570;27.826;2023-03-03T17:03:02;99089.19;;;9.15;100.00
11349;BME280;5729;43.570;27.826;2023-03-03T17:05:52;99103.44;;;8.99;100.00
11349;BME280;5729;43.570;27.826;2023-03-03T17:08:26;99101.41;;;8.96;100.00
11349;BME280;5729;43.570;27.826;2023-03-03T17:16:29;99099.59;;;8.85;100.00
11349;BME280;5729;43.570;27.826;2023-03-03T17:22:17;99114.34;;;8.63;100.00
11349;BME280;5729;43.570;27.826;2023-03-03T17:28:04;99111.13;;;8.57;100.00
11349;BME280;5729;43.570;27.826;2023-03-03T17:44:23;99117.38;;;8.33;100.00
11349;BME280;5729;43.570;27.826;2023-03-03T17:46:57;99131.47;;;8.18;100.00
11349;BME280;5729;43.570;27.826;2023-03-03T18:00:05;99138.00;;;7.11;100.00
11349;BME280;5729;43.570;27.826;2023-03-03T18:02:52;99129.22;;;7.11;100.00
11349;BME280;5729;43.570;27.826;2023-03-03T18:11:50;99151.13;;;6.38;100.00
11349;BME280;5729;43.570;27.826;2023-03-03T18:22:28;99153.47;;;6.19;100.00